createdAt,value
2019-05-01T00:00:21.050Z,9.00
2019-05-01T00:02:59.692Z,9.00
2019-05-01T00:05:35.935Z,9.00
2019-05-01T00:08:05.016Z,9.00
2019-05-01T00:10:34.188Z,9.00
2019-05-01T00:13:02.834Z,8.90
2019-05-01T00:15:33.409Z,8.90
2019-05-01T00:18:02.011Z,8.90
2019-05-01T00:20:30.520Z,8.90
2019-05-01T00:22:59.000Z,8.80
2019-05-01T00:25:27.480Z,8.80
2019-05-01T00:27:56.129Z,8.80
2019-05-01T00:30:29.937Z,8.80
2019-05-01T00:32:56.267Z,8.80
2019-05-01T00:35:24.766Z,8.70
2019-05-01T00:37:53.229Z,8.70
2019-05-01T00:40:21.791Z,8.70
2019-05-01T00:42:50.510Z,8.70
2019-05-01T00:45:19.148Z,8.60
2019-05-01T00:47:47.712Z,8.60
2019-05-01T00:50:16.274Z,8.50
2019-05-01T00:52:44.740Z,8.50
2019-05-01T00:55:31.503Z,8.50
2019-05-01T00:58:01.658Z,8.40
2019-05-01T01:00:42.524Z,8.40
2019-05-01T01:03:02.100Z,8.40
2019-05-01T01:05:30.561Z,8.30
2019-05-01T01:07:59.150Z,8.30
2019-05-01T01:10:27.707Z,8.30
2019-05-01T01:12:57.256Z,8.30
2019-05-01T01:15:25.820Z,8.30
2019-05-01T01:17:54.417Z,8.20
2019-05-01T01:20:22.964Z,8.20
2019-05-01T01:22:51.482Z,8.10
2019-05-01T01:25:19.988Z,8.20
2019-05-01T01:27:48.456Z,8.10
2019-05-01T01:30:17.932Z,8.10
2019-05-01T01:32:46.531Z,8.10
2019-05-01T01:35:15.117Z,8.00
2019-05-01T01:37:43.759Z,8.00
2019-05-01T01:40:12.826Z,7.90
2019-05-01T01:42:42.680Z,7.90
2019-05-01T01:45:18.397Z,7.90
2019-05-01T01:48:05.036Z,7.90
2019-05-01T01:50:33.940Z,7.80
2019-05-01T01:53:02.481Z,7.80
2019-05-01T01:55:31.138Z,7.80
2019-05-01T01:57:59.746Z,7.80
2019-05-01T02:00:29.881Z,7.70
2019-05-01T02:03:00.169Z,7.70
2019-05-01T02:05:30.422Z,7.70
2019-05-01T02:07:59.069Z,7.70
2019-05-01T02:10:27.851Z,7.60
2019-05-01T02:12:58.166Z,7.60
2019-05-01T02:15:27.101Z,7.60
2019-05-01T02:17:55.890Z,7.60
2019-05-01T02:20:24.688Z,7.60
2019-05-01T02:22:53.248Z,7.60
2019-05-01T02:25:22.500Z,7.60
2019-05-01T02:27:52.754Z,7.50
2019-05-01T02:30:22.864Z,7.50
2019-05-01T02:32:53.297Z,7.40
2019-05-01T02:35:25.189Z,7.40
2019-05-01T02:37:54.439Z,7.40
2019-05-01T02:40:37.956Z,7.30
2019-05-01T02:43:09.264Z,7.30
2019-05-01T02:45:39.262Z,7.20
2019-05-01T02:48:09.205Z,7.20
2019-05-01T02:50:40.183Z,7.20
2019-05-01T02:53:09.121Z,7.10
2019-05-01T02:55:39.872Z,7.10
2019-05-01T02:58:10.664Z,7.10
2019-05-01T03:00:39.882Z,7.10
2019-05-01T03:03:09.007Z,7.10
2019-05-01T03:05:37.811Z,7.00
2019-05-01T03:08:06.443Z,7.00
2019-05-01T03:10:35.515Z,7.00
2019-05-01T03:13:04.752Z,6.90
2019-05-01T03:15:35.502Z,6.90
2019-05-01T03:18:14.909Z,6.90
2019-05-01T03:20:54.308Z,6.80
2019-05-01T03:23:24.990Z,6.80
2019-05-01T03:25:54.344Z,6.80
2019-05-01T03:28:22.882Z,6.80
2019-05-01T03:30:51.601Z,6.80
2019-05-01T03:33:20.209Z,6.70
2019-05-01T03:35:48.867Z,6.70
2019-05-01T03:38:18.446Z,6.70
2019-05-01T03:40:47.634Z,6.60
2019-05-01T03:43:16.291Z,6.70
2019-05-01T03:45:44.992Z,6.60
2019-05-01T03:48:13.708Z,6.70
2019-05-01T03:50:46.169Z,6.60
2019-05-01T03:53:13.369Z,6.70
2019-05-01T03:55:42.100Z,6.70
2019-05-01T03:58:10.586Z,6.60
2019-05-01T04:00:40.871Z,6.60
2019-05-01T04:03:26.452Z,6.60
2019-05-01T04:05:55.616Z,6.60
2019-05-01T04:08:24.828Z,6.50
2019-05-01T04:10:54.839Z,6.50
2019-05-01T04:13:24.065Z,6.50
2019-05-01T04:15:54.047Z,6.50
2019-05-01T04:18:23.986Z,6.50
2019-05-01T04:20:52.755Z,6.50
2019-05-01T04:23:21.430Z,6.50
2019-05-01T04:25:50.939Z,6.40
2019-05-01T04:28:33.105Z,6.40
2019-05-01T04:31:09.701Z,6.40
2019-05-01T04:33:39.914Z,6.40
2019-05-01T04:36:13.307Z,6.30
2019-05-01T04:38:42.021Z,6.40
2019-05-01T04:41:10.670Z,6.40
2019-05-01T04:43:39.811Z,6.40
2019-05-01T04:46:08.624Z,6.40
2019-05-01T04:48:37.180Z,6.40
2019-05-01T04:51:05.754Z,6.40
2019-05-01T04:53:35.096Z,6.40
2019-05-01T04:56:04.045Z,6.40
2019-05-01T04:58:32.617Z,6.40
2019-05-01T05:01:01.730Z,6.40
2019-05-01T05:03:30.388Z,6.50
2019-05-01T05:05:59.670Z,6.60
2019-05-01T05:08:28.415Z,6.70
2019-05-01T05:10:58.522Z,6.60
2019-05-01T05:13:28.696Z,6.70
2019-05-01T05:16:08.990Z,6.80
2019-05-01T05:18:38.045Z,7.00
2019-05-01T05:21:06.673Z,7.20
2019-05-01T05:23:35.320Z,7.30
2019-05-01T05:26:04.304Z,7.30
2019-05-01T05:28:34.231Z,7.30
2019-05-01T05:31:03.853Z,7.40
2019-05-01T05:33:36.062Z,7.50
2019-05-01T05:36:05.174Z,7.60
2019-05-01T05:38:36.722Z,7.60
2019-05-01T05:41:06.988Z,7.70
2019-05-01T05:43:36.420Z,7.90
2019-05-01T05:46:06.032Z,8.10
2019-05-01T05:48:34.603Z,8.20
2019-05-01T05:51:15.919Z,8.30
2019-05-01T05:53:54.874Z,8.30
2019-05-01T05:56:28.092Z,8.40
2019-05-01T05:58:59.960Z,8.50
2019-05-01T06:01:31.726Z,8.60
2019-05-01T06:04:04.919Z,8.70
2019-05-01T06:06:37.172Z,8.90
2019-05-01T06:09:08.931Z,8.90
2019-05-01T06:11:51.698Z,9.00
2019-05-01T06:14:39.266Z,9.00
2019-05-01T06:17:09.802Z,9.10
2019-05-01T06:19:40.138Z,9.10
2019-05-01T06:22:11.694Z,9.10
2019-05-01T06:24:42.770Z,9.20
2019-05-01T06:27:13.746Z,9.20
2019-05-01T06:29:43.839Z,9.30
2019-05-01T06:32:12.438Z,9.30
2019-05-01T06:34:41.189Z,9.40
2019-05-01T06:37:09.670Z,9.50
2019-05-01T06:39:42.880Z,9.60
2019-05-01T06:42:15.050Z,9.80
2019-05-01T06:44:44.557Z,9.80
2019-05-01T06:47:21.154Z,9.90
2019-05-01T06:50:01.222Z,10.10
2019-05-01T06:52:30.751Z,10.20
2019-05-01T06:54:59.609Z,10.30
2019-05-01T06:57:29.730Z,10.40
2019-05-01T07:00:03.125Z,10.40
2019-05-01T07:02:34.960Z,10.40
2019-05-01T07:05:01.946Z,10.50
2019-05-01T07:07:32.441Z,10.50
2019-05-01T07:10:02.229Z,10.50
2019-05-01T07:12:32.351Z,10.60
2019-05-01T07:15:02.459Z,10.70
2019-05-01T07:17:31.067Z,10.50
2019-05-01T07:20:04.806Z,10.40
2019-05-01T07:22:37.070Z,10.70
2019-05-01T07:25:05.302Z,11.40
2019-05-01T07:27:34.009Z,12.00
2019-05-01T07:30:04.189Z,11.80
2019-05-01T07:32:36.384Z,11.80
2019-05-01T07:35:03.944Z,12.20
2019-05-01T07:37:32.728Z,12.30
2019-05-01T07:40:01.709Z,12.60
2019-05-01T07:42:31.963Z,13.00
2019-05-01T07:45:15.953Z,13.10
2019-05-01T07:47:55.748Z,13.60
2019-05-01T07:50:31.570Z,13.80
2019-05-01T07:52:55.313Z,14.00
2019-05-01T07:55:35.996Z,14.10
2019-05-01T07:58:10.340Z,14.30
2019-05-01T08:00:47.884Z,14.40
2019-05-01T08:03:16.498Z,14.60
2019-05-01T08:05:45.433Z,14.90
2019-05-01T08:08:15.256Z,14.80
2019-05-01T08:10:44.193Z,15.10
2019-05-01T08:13:12.742Z,15.40
2019-05-01T08:15:41.237Z,15.10
2019-05-01T08:18:14.081Z,14.90
2019-05-01T08:20:45.800Z,14.60
2019-05-01T08:23:14.489Z,14.90
2019-05-01T08:25:43.084Z,15.70
2019-05-01T08:28:13.328Z,16.00
2019-05-01T08:30:58.437Z,15.60
2019-05-01T08:33:28.610Z,15.50
2019-05-01T08:35:57.102Z,15.20
2019-05-01T08:38:25.617Z,14.80
2019-05-01T08:40:55.468Z,14.60
2019-05-01T08:43:24.470Z,14.30
2019-05-01T08:46:06.760Z,14.40
2019-05-01T08:48:37.719Z,14.30
2019-05-01T08:51:06.357Z,14.10
2019-05-01T08:53:34.917Z,14.30
2019-05-01T08:56:03.410Z,14.20
2019-05-01T08:58:31.897Z,14.00
2019-05-01T09:01:00.500Z,13.90
2019-05-01T09:03:29.058Z,14.20
2019-05-01T09:05:58.991Z,14.50
2019-05-01T09:08:32.099Z,14.50
2019-05-01T09:11:00.256Z,14.50
2019-05-01T09:13:28.207Z,14.60
2019-05-01T09:15:56.704Z,14.50
2019-05-01T09:18:25.365Z,14.50
2019-05-01T09:20:55.540Z,14.60
2019-05-01T09:23:24.109Z,14.70
2019-05-01T09:25:54.322Z,14.60
2019-05-01T09:28:24.644Z,14.40
2019-05-01T09:31:01.599Z,14.50
2019-05-01T09:33:26.254Z,14.50
2019-05-01T09:35:55.630Z,14.40
2019-05-01T09:38:24.317Z,14.50
2019-05-01T09:40:52.982Z,14.50
2019-05-01T09:43:21.765Z,14.60
2019-05-01T09:45:50.248Z,14.90
2019-05-01T09:48:18.976Z,14.90
2019-05-01T09:50:49.286Z,14.90
2019-05-01T09:53:19.564Z,15.00
2019-05-01T09:55:49.730Z,15.10
2019-05-01T09:58:18.196Z,15.10
2019-05-01T10:00:48.751Z,15.00
2019-05-01T10:03:18.170Z,15.20
2019-05-01T10:05:46.918Z,15.20
2019-05-01T10:08:15.388Z,15.20
2019-05-01T10:10:43.915Z,15.00
2019-05-01T10:13:12.393Z,15.00
2019-05-01T10:15:40.889Z,15.10
2019-05-01T10:18:09.371Z,15.00
2019-05-01T10:20:37.906Z,15.10
2019-05-01T10:23:07.870Z,15.20
2019-05-01T10:25:38.294Z,15.20
2019-05-01T10:28:12.752Z,15.40
2019-05-01T10:30:45.185Z,15.60
2019-05-01T10:33:21.373Z,16.00
2019-05-01T10:36:03.564Z,15.90
2019-05-01T10:38:32.223Z,15.60
2019-05-01T10:41:04.296Z,15.80
2019-05-01T10:43:31.289Z,15.80
2019-05-01T10:45:59.769Z,15.80
2019-05-01T10:48:28.374Z,15.90
2019-05-01T10:50:56.960Z,15.80
2019-05-01T10:53:25.488Z,15.90
2019-05-01T10:55:54.035Z,15.70
2019-05-01T10:58:22.605Z,15.90
2019-05-01T11:00:52.893Z,16.00
2019-05-01T11:03:21.468Z,16.10
2019-05-01T11:05:55.980Z,16.50
2019-05-01T11:08:20.312Z,17.40
2019-05-01T11:10:48.876Z,17.30
2019-05-01T11:13:17.411Z,17.20
2019-05-01T11:15:45.966Z,17.00
2019-05-01T11:18:14.543Z,16.60
2019-05-01T11:20:43.105Z,16.60
2019-05-01T11:23:11.695Z,16.60
2019-05-01T11:25:40.359Z,16.80
2019-05-01T11:28:08.902Z,16.30
2019-05-01T11:30:37.477Z,16.50
2019-05-01T11:33:07.671Z,16.40
2019-05-01T11:35:40.515Z,16.50
2019-05-01T11:38:10.667Z,16.60
2019-05-01T11:40:40.784Z,17.10
2019-05-01T11:43:09.285Z,17.10
2019-05-01T11:45:37.836Z,17.00
2019-05-01T11:48:06.464Z,17.00
2019-05-01T11:50:34.974Z,17.00
2019-05-01T11:53:03.657Z,16.80
2019-05-01T11:55:32.219Z,16.80
2019-05-01T11:58:00.782Z,16.60
2019-05-01T12:00:29.396Z,16.50
2019-05-01T12:02:57.893Z,16.70
2019-05-01T12:05:26.457Z,16.70
2019-05-01T12:07:55.078Z,16.80
2019-05-01T12:10:23.619Z,16.90
2019-05-01T12:12:52.276Z,16.70
2019-05-01T12:15:20.826Z,16.80
2019-05-01T12:17:50.642Z,16.90
2019-05-01T12:20:21.162Z,17.00
2019-05-01T12:22:51.494Z,17.00
2019-05-01T12:25:20.018Z,16.90
2019-05-01T12:27:48.693Z,16.70
2019-05-01T12:30:18.402Z,17.10
2019-05-01T12:32:46.895Z,17.60
2019-05-01T12:35:15.536Z,17.60
2019-05-01T12:37:44.263Z,17.50
2019-05-01T12:40:15.634Z,17.40
2019-05-01T12:42:44.325Z,17.30
2019-05-01T12:45:14.102Z,17.20
2019-05-01T12:47:44.348Z,17.40
2019-05-01T12:50:14.076Z,18.20
2019-05-01T12:52:46.991Z,18.90
2019-05-01T12:55:23.121Z,18.80
2019-05-01T12:57:51.781Z,18.90
2019-05-01T13:00:23.347Z,19.10
2019-05-01T13:02:51.867Z,19.50
2019-05-01T13:05:20.413Z,20.30
2019-05-01T13:07:48.922Z,20.40
2019-05-01T13:10:17.478Z,20.50
2019-05-01T13:12:45.978Z,20.70
2019-05-01T13:15:14.609Z,20.80
2019-05-01T13:17:43.158Z,20.50
2019-05-01T13:20:11.779Z,20.30
2019-05-01T13:22:40.284Z,20.20
2019-05-01T13:25:08.996Z,19.70
2019-05-01T13:27:46.233Z,19.40
2019-05-01T13:30:17.766Z,19.40
2019-05-01T13:32:47.940Z,19.50
2019-05-01T13:35:16.493Z,19.20
2019-05-01T13:37:45.038Z,19.30
2019-05-01T13:40:15.085Z,19.90
2019-05-01T13:42:43.707Z,19.80
2019-05-01T13:45:13.129Z,19.90
2019-05-01T13:47:41.696Z,20.00
2019-05-01T13:50:10.711Z,20.10
2019-05-01T13:52:39.184Z,19.90
2019-05-01T13:55:07.853Z,20.10
2019-05-01T13:57:36.369Z,20.00
2019-05-01T14:00:06.671Z,19.90
2019-05-01T14:02:35.204Z,19.90
2019-05-01T14:05:05.093Z,20.00
2019-05-01T14:07:33.680Z,20.00
2019-05-01T14:10:02.225Z,19.70
2019-05-01T14:12:30.710Z,19.20
2019-05-01T14:14:59.217Z,19.30
2019-05-01T14:17:27.825Z,19.50
2019-05-01T14:20:00.403Z,19.30
2019-05-01T14:22:36.545Z,19.30
2019-05-01T14:25:10.581Z,19.60
2019-05-01T14:27:39.072Z,19.70
2019-05-01T14:30:10.364Z,19.90
2019-05-01T14:32:38.946Z,19.80
2019-05-01T14:35:11.424Z,19.90
2019-05-01T14:37:39.978Z,19.90
2019-05-01T14:40:09.101Z,19.70
2019-05-01T14:42:37.829Z,19.50
2019-05-01T14:45:08.673Z,19.60
2019-05-01T14:47:37.155Z,19.30
2019-05-01T14:50:06.898Z,19.40
2019-05-01T14:52:35.557Z,19.40
2019-05-01T14:55:06.752Z,19.20
2019-05-01T14:57:35.456Z,19.20
2019-05-01T15:00:06.321Z,19.30
2019-05-01T15:02:34.859Z,19.20
2019-05-01T15:05:04.659Z,19.10
2019-05-01T15:07:43.334Z,19.00
2019-05-01T15:10:06.518Z,19.00
2019-05-01T15:12:35.101Z,19.20
2019-05-01T15:15:06.226Z,19.20
2019-05-01T15:17:42.290Z,19.00
2019-05-01T15:20:10.845Z,18.80
2019-05-01T15:22:39.329Z,18.50
2019-05-01T15:25:07.980Z,18.50
2019-05-01T15:27:36.465Z,18.40
2019-05-01T15:30:07.263Z,18.40
2019-05-01T15:32:35.813Z,18.40
2019-05-01T15:35:05.732Z,18.30
2019-05-01T15:37:35.811Z,18.30
2019-05-01T15:40:07.879Z,18.40
2019-05-01T15:42:40.740Z,18.30
2019-05-01T15:45:09.830Z,18.30
2019-05-01T15:47:38.497Z,18.30
2019-05-01T15:50:08.047Z,18.10
2019-05-01T15:52:36.629Z,18.00
2019-05-01T15:55:08.424Z,17.90
2019-05-01T15:57:37.112Z,17.90
2019-05-01T16:00:08.274Z,17.80
2019-05-01T16:02:36.982Z,17.70
2019-05-01T16:05:07.202Z,17.80
2019-05-01T16:07:35.705Z,17.70
2019-05-01T16:10:10.265Z,17.60
2019-05-01T16:12:40.575Z,17.50
2019-05-01T16:15:11.419Z,17.50
2019-05-01T16:17:39.992Z,17.50
2019-05-01T16:20:08.620Z,17.30
2019-05-01T16:22:37.170Z,17.10
2019-05-01T16:25:07.484Z,17.10
2019-05-01T16:27:36.047Z,17.00
2019-05-01T16:30:06.149Z,17.00
2019-05-01T16:32:34.700Z,16.90
2019-05-01T16:35:03.580Z,17.20
2019-05-01T16:37:32.218Z,17.10
2019-05-01T16:40:16.056Z,17.00
2019-05-01T16:42:44.602Z,17.10
2019-05-01T16:45:14.095Z,17.10
2019-05-01T16:47:42.681Z,17.00
2019-05-01T16:50:12.166Z,16.90
2019-05-01T16:52:40.787Z,16.90
2019-05-01T16:55:10.095Z,16.80
2019-05-01T16:57:38.643Z,16.70
2019-05-01T17:00:09.917Z,16.60
2019-05-01T17:02:52.450Z,16.60
2019-05-01T17:05:28.824Z,16.50
2019-05-01T17:08:15.398Z,16.50
2019-05-01T17:10:45.706Z,16.50
2019-05-01T17:13:14.242Z,16.40
2019-05-01T17:15:44.441Z,16.40
2019-05-01T17:18:14.072Z,16.30
2019-05-01T17:20:43.162Z,16.20
2019-05-01T17:23:11.815Z,16.10
2019-05-01T17:25:40.377Z,16.10
2019-05-01T17:28:09.497Z,16.20
2019-05-01T17:30:43.666Z,16.10
2019-05-01T17:33:20.125Z,16.10
2019-05-01T17:35:43.256Z,16.00
2019-05-01T17:38:12.036Z,15.90
2019-05-01T17:40:40.568Z,15.80
2019-05-01T17:43:13.319Z,15.60
2019-05-01T17:45:39.323Z,15.70
2019-05-01T17:48:08.175Z,15.70
2019-05-01T17:50:36.671Z,15.60
2019-05-01T17:53:05.324Z,15.60
2019-05-01T17:55:34.032Z,15.40
2019-05-01T17:58:02.517Z,15.30
2019-05-01T18:00:38.797Z,15.30
2019-05-01T18:03:09.303Z,15.20
2019-05-01T18:05:56.218Z,15.20
2019-05-01T18:08:25.912Z,15.00
2019-05-01T18:10:54.408Z,15.00
2019-05-01T18:13:23.691Z,14.90
2019-05-01T18:15:52.325Z,14.90
2019-05-01T18:18:20.909Z,14.80
2019-05-01T18:20:49.530Z,14.80
2019-05-01T18:23:22.360Z,14.80
2019-05-01T18:25:55.559Z,14.70
2019-05-01T18:28:34.622Z,14.70
2019-05-01T18:31:04.855Z,14.60
2019-05-01T18:33:33.380Z,14.60
2019-05-01T18:36:01.896Z,14.60
2019-05-01T18:38:32.431Z,14.50
2019-05-01T18:41:05.421Z,14.40
2019-05-01T18:43:34.021Z,14.30
2019-05-01T18:46:03.637Z,14.30
2019-05-01T18:48:32.300Z,14.20
2019-05-01T18:51:00.829Z,14.00
2019-05-01T18:53:29.456Z,14.00
2019-05-01T18:56:01.387Z,14.00
2019-05-01T18:58:28.356Z,13.90
2019-05-01T19:00:56.888Z,13.90
2019-05-01T19:03:25.410Z,13.80
2019-05-01T19:05:54.048Z,13.70
2019-05-01T19:08:22.589Z,13.60
2019-05-01T19:10:51.237Z,13.50
2019-05-01T19:13:19.845Z,13.60
2019-05-01T19:15:48.492Z,13.50
2019-05-01T19:18:17.065Z,13.60
2019-05-01T19:20:58.591Z,13.50
2019-05-01T19:23:16.019Z,13.50
2019-05-01T19:25:44.584Z,13.40
2019-05-01T19:28:13.136Z,13.30
2019-05-01T19:30:41.710Z,13.20
2019-05-01T19:33:10.186Z,13.10
2019-05-01T19:35:38.680Z,13.20
2019-05-01T19:38:07.733Z,13.20
2019-05-01T19:40:36.209Z,13.10
2019-05-01T19:43:04.974Z,13.00
2019-05-01T19:45:33.705Z,13.00
2019-05-01T19:48:02.330Z,13.00
2019-05-01T19:50:31.094Z,12.90
2019-05-01T19:52:59.600Z,12.90
2019-05-01T19:55:28.187Z,12.90
2019-05-01T19:57:56.784Z,12.80
2019-05-01T20:00:47.778Z,12.70
2019-05-01T20:03:16.369Z,12.70
2019-05-01T20:05:44.879Z,12.60
2019-05-01T20:08:13.547Z,12.50
2019-05-01T20:10:42.260Z,12.50
2019-05-01T20:13:12.267Z,12.50
2019-05-01T20:15:41.199Z,12.50
2019-05-01T20:18:09.904Z,12.40
2019-05-01T20:20:38.524Z,12.30
2019-05-01T20:23:07.085Z,12.20
2019-05-01T20:25:35.640Z,12.30
2019-05-01T20:28:04.373Z,12.20
2019-05-01T20:30:32.954Z,12.10
2019-05-01T20:33:02.167Z,12.00
2019-05-01T20:35:34.036Z,12.00
2019-05-01T20:38:01.297Z,12.00
2019-05-01T20:40:29.841Z,12.00
2019-05-01T20:43:01.120Z,12.00
2019-05-01T20:45:28.767Z,12.00
2019-05-01T20:47:57.307Z,12.00
2019-05-01T20:50:25.969Z,11.90
2019-05-01T20:52:54.459Z,11.90
2019-05-01T20:55:23.075Z,11.90
2019-05-01T20:57:51.583Z,11.80
2019-05-01T21:00:22.070Z,11.70
2019-05-01T21:02:50.614Z,11.70
2019-05-01T21:05:23.698Z,11.60
2019-05-01T21:08:12.254Z,11.60
2019-05-01T21:10:50.614Z,11.60
2019-05-01T21:13:17.734Z,11.50
2019-05-01T21:15:47.240Z,11.40
2019-05-01T21:18:16.136Z,11.30
2019-05-01T21:20:44.682Z,11.30
2019-05-01T21:23:14.340Z,11.20
2019-05-01T21:25:43.893Z,11.10
2019-05-01T21:28:14.169Z,11.10
2019-05-01T21:30:45.829Z,11.00
2019-05-01T21:33:13.926Z,10.90
2019-05-01T21:35:44.479Z,10.90
2019-05-01T21:38:13.056Z,10.90
2019-05-01T21:40:43.697Z,10.80
2019-05-01T21:43:13.623Z,10.70
2019-05-01T21:45:43.373Z,10.70
2019-05-01T21:48:13.405Z,10.70
2019-05-01T21:50:43.922Z,10.70
2019-05-01T21:53:12.835Z,10.70
2019-05-01T21:55:41.610Z,10.60
2019-05-01T21:58:10.269Z,10.60
2019-05-01T22:00:40.829Z,10.60
2019-05-01T22:03:09.854Z,10.50
2019-05-01T22:05:39.661Z,10.50
2019-05-01T22:08:08.827Z,10.40
2019-05-01T22:10:37.439Z,10.40
2019-05-01T22:13:06.680Z,10.40
2019-05-01T22:15:41.920Z,10.30
2019-05-01T22:18:11.679Z,10.30
2019-05-01T22:20:44.697Z,10.30
2019-05-01T22:23:21.994Z,10.30
2019-05-01T22:25:49.781Z,10.20
2019-05-01T22:28:25.915Z,9.90
2019-05-01T22:31:16.792Z,10.00
2019-05-01T22:33:45.910Z,9.90
2019-05-01T22:36:14.469Z,9.80
2019-05-01T22:38:43.222Z,9.80
2019-05-01T22:41:12.885Z,9.80
2019-05-01T22:43:41.524Z,9.70
2019-05-01T22:46:11.695Z,9.70
2019-05-01T22:48:40.315Z,9.70
2019-05-01T22:51:10.443Z,9.60
2019-05-01T22:53:38.992Z,9.50
2019-05-01T22:56:07.502Z,9.50
2019-05-01T22:58:35.977Z,9.50
2019-05-01T23:01:05.205Z,9.50
2019-05-01T23:03:41.112Z,9.40
2019-05-01T23:06:08.529Z,9.40
2019-05-01T23:08:37.061Z,9.40
2019-05-01T23:11:18.535Z,9.30
2019-05-01T23:13:35.893Z,9.30
2019-05-01T23:16:05.481Z,9.30
2019-05-01T23:18:34.213Z,9.20
2019-05-01T23:21:02.743Z,9.10
2019-05-01T23:23:31.219Z,9.10
2019-05-01T23:25:59.801Z,9.10
2019-05-01T23:28:28.345Z,9.00
2019-05-01T23:30:56.882Z,9.00
2019-05-01T23:33:25.386Z,8.90
2019-05-01T23:35:54.002Z,8.90
2019-05-01T23:38:22.551Z,8.90
2019-05-01T23:40:52.915Z,8.90
2019-05-01T23:43:23.005Z,8.80
2019-05-01T23:45:51.484Z,8.70
2019-05-01T23:48:20.059Z,8.60
2019-05-01T23:50:48.662Z,8.60
2019-05-01T23:53:17.169Z,8.50
2019-05-01T23:55:45.705Z,8.50
2019-05-01T23:58:14.650Z,8.50
